Time;durP1;ratioP1;P1;durP2;ratioP2;P2;SDS_P1;SDS_P2;PMS_P1;PMS_P2;Temp;Humidity;BMP_temperature;BMP_pressure;BME280_temperature;BME280_humidity;BME280_pressure;Samples;Min_cycle;Max_cycle;Signal;HPM_P1;HPM_P2
2022/07/30 00:01:10;;;;;;;0.10;0.10;;;;;;;22.59;53.96;101320.69;5132912;27;20043;-37
2022/07/30 00:03:35;;;;;;;0.10;0.10;;;;;;;22.59;54.03;101320.69;5135770;27;20043;-39
2022/07/30 00:06:01;;;;;;;0.10;0.10;;;;;;;22.60;54.06;101319.56;5133642;27;20051;-39
2022/07/30 00:08:27;;;;;;;0.20;0.20;;;;;;;22.58;54.14;101320.97;5134605;27;20486;-39
2022/07/30 00:10:52;;;;;;;0.10;0.10;;;;;;;22.58;53.99;101319.03;5136347;27;20393;-37
2022/07/30 00:13:18;;;;;;;0.10;0.10;;;;;;;22.58;54.25;101316.25;5138480;27;20042;-37
2022/07/30 00:15:44;;;;;;;0.10;0.10;;;;;;;22.57;54.23;101311.81;5135705;27;20099;-38
2022/07/30 00:18:09;;;;;;;0.10;0.10;;;;;;;22.57;54.08;101317.38;5135628;27;20057;-39
2022/07/30 00:20:39;;;;;;;0.10;0.10;;;;;;;22.59;54.00;101311.56;5133265;27;20484;-38
2022/07/30 00:23:07;;;;;;;0.10;0.10;;;;;;;22.58;54.01;101313.47;5135770;27;20062;-37
2022/07/30 00:25:33;;;;;;;0.10;0.10;;;;;;;22.58;54.12;101310.69;5135177;27;20043;-39
2022/07/30 00:27:59;;;;;;;0.10;0.10;;;;;;;22.58;54.03;101316.25;5139326;27;20043;-36
2022/07/30 00:30:24;;;;;;;0.10;0.10;;;;;;;22.58;53.98;101312.66;5116567;27;21997;-38
2022/07/30 00:32:50;;;;;;;0.10;0.10;;;;;;;22.59;53.95;101309.59;5137891;27;20424;-38
2022/07/30 00:35:16;;;;;;;0.10;0.10;;;;;;;22.57;54.02;101320.16;5116441;27;20081;-38
2022/07/30 00:37:43;;;;;;;0.10;0.10;;;;;;;22.58;54.10;101309.88;5136746;27;20047;-38
2022/07/30 00:40:09;;;;;;;0.10;0.10;;;;;;;22.59;53.94;101315.16;5130880;27;20462;-38
2022/07/30 00:42:37;;;;;;;0.10;0.10;;;;;;;22.58;54.01;101313.47;5132304;27;20125;-38
2022/07/30 00:45:04;;;;;;;;;;;;;;;22.58;53.96;101316.25;5139843;27;20083;-37
2022/07/30 00:47:29;;;;;;;0.10;0.10;;;;;;;22.58;53.96;101318.19;5135047;27;20339;-37
2022/07/30 00:49:55;;;;;;;0.10;0.10;;;;;;;22.58;54.04;101316.25;5135569;27;20039;-38
2022/07/30 00:52:21;;;;;;;0.10;0.10;;;;;;;22.57;54.02;101311.81;5136537;27;20118;-37
2022/07/30 00:54:46;;;;;;;0.10;0.10;;;;;;;22.57;54.16;101314.59;5135320;27;20043;-39
2022/07/30 00:57:12;;;;;;;0.10;0.10;;;;;;;22.57;54.02;101317.38;5137549;27;20126;-37
2022/07/30 00:59:38;;;;;;;0.10;0.10;;;;;;;22.58;53.85;101313.47;5135836;27;20043;-39
2022/07/30 01:02:03;;;;;;;0.10;0.10;;;;;;;22.58;53.89;101324.56;5139157;27;20045;-39
2022/07/30 01:04:29;;;;;;;0.10;0.10;;;;;;;22.58;54.13;101321.78;5120227;27;20054;-37
2022/07/30 01:06:55;;;;;;;0.10;0.10;;;;;;;22.58;54.14;101319.03;5136528;27;20053;-37
2022/07/30 01:09:21;;;;;;;0.10;0.10;;;;;;;22.59;54.05;101319.88;5137045;27;20047;-38
2022/07/30 01:11:46;;;;;;;0.10;0.10;;;;;;;22.58;54.13;101323.75;5142671;27;20521;-37
2022/07/30 01:14:12;;;;;;;0.10;0.10;;;;;;;22.59;54.11;101323.47;5135453;27;20055;-39
2022/07/30 01:16:41;;;;;;;0.10;0.10;;;;;;;22.58;54.00;101318.19;5122740;27;20035;-39
2022/07/30 01:19:51;;;;;;;0.10;0.10;;;;;;;22.59;53.99;101317.94;5138022;27;20066;-37
2022/07/30 01:22:07;;;;;;;0.10;0.10;;;;;;;22.58;54.05;101319.03;5105983;27;20137;-38
2022/07/30 01:24:39;;;;;;;0.10;0.10;;;;;;;22.59;53.96;101319.88;5133519;27;20141;-37
2022/07/30 01:27:06;;;;;;;0.20;0.20;;;;;;;22.59;53.99;101320.69;5121107;27;20074;-37
2022/07/30 01:29:32;;;;;;;0.10;0.10;;;;;;;22.59;54.08;101326.25;5121163;27;20050;-39
2022/07/30 01:31:59;;;;;;;0.10;0.10;;;;;;;22.58;54.13;101321.78;5136153;27;20066;-37
2022/07/30 01:34:28;;;;;;;0.10;0.10;;;;;;;22.58;54.10;101327.34;5140598;27;20518;-38
2022/07/30 01:36:56;;;;;;;0.10;0.10;;;;;;;22.58;54.16;101323.75;5138632;27;20473;-38
2022/07/30 01:39:22;;;;;;;0.10;0.10;;;;;;;22.59;54.04;101322.66;5136493;27;20083;-38
2022/07/30 01:41:49;;;;;;;0.10;0.10;;;;;;;22.59;54.00;101317.94;5141521;27;20485;-39
2022/07/30 01:44:15;;;;;;;0.10;0.10;;;;;;;22.59;53.93;101317.09;5137581;27;20184;-37
2022/07/30 01:46:49;;;;;;;0.10;0.10;;;;;;;22.59;53.99;101317.94;5136180;27;20050;-39
2022/07/30 01:49:16;;;;;;;0.10;0.10;;;;;;;22.58;54.07;101319.03;5139289;27;20135;-38
2022/07/30 01:51:43;;;;;;;0.10;0.10;;;;;;;22.58;54.10;101321.78;5140330;27;20042;-38
2022/07/30 01:54:10;;;;;;;0.10;0.10;;;;;;;22.58;54.05;101318.19;5136852;27;20067;-38
2022/07/30 01:56:36;;;;;;;0.10;0.10;;;;;;;22.59;53.97;101325.44;5137509;27;20538;-39
2022/07/30 01:59:02;;;;;;;0.10;0.10;;;;;;;22.57;54.01;101322.94;5140281;27;20473;-37
2022/07/30 02:01:27;;;;;;;0.10;0.10;;;;;;;22.59;53.94;101322.66;5121902;27;20046;-38
2022/07/30 02:03:53;;;;;;;0.10;0.10;;;;;;;22.59;54.10;101339.31;5122104;27;20050;-39
2022/07/30 02:06:22;;;;;;;0.10;0.10;;;;;;;22.58;53.94;101330.13;5136433;27;20066;-37
2022/07/30 02:08:52;;;;;;;0.10;0.10;;;;;;;22.59;53.89;101333.75;5139098;27;20070;-37
2022/07/30 02:12:27;;;;;;;0.10;0.10;;;;;;;22.59;54.01;101337.34;5137534;27;20035;-38
2022/07/30 02:14:08;;;;;;;0.10;0.10;;;;;;;22.58;54.04;101346.78;5122178;27;20157;-37
2022/07/30 02:16:37;;;;;;;0.10;0.10;;;;;;;22.58;54.09;101337.63;5139798;27;20433;-37
2022/07/30 02:19:18;;;;;;;0.10;0.10;;;;;;;22.58;53.99;101338.44;5132656;27;20039;-38
2022/07/30 02:21:48;;;;;;;0.10;0.10;;;;;;;22.58;54.05;101340.41;5118777;27;20125;-38
2022/07/30 02:24:20;;;;;;;0.10;0.10;;;;;;;22.57;53.97;101339.59;5116358;27;20115;-38
2022/07/30 02:26:49;;;;;;;0.10;0.10;;;;;;;22.57;54.09;101336.81;5137324;27;20082;-38
2022/07/30 02:29:17;;;;;;;0.10;0.10;;;;;;;22.58;54.09;101343.19;5135621;27;20063;-37
2022/07/30 02:31:43;;;;;;;0.10;0.10;;;;;;;22.57;54.08;101336.81;5134807;27;20089;-38
2022/07/30 02:34:09;;;;;;;0.10;0.10;;;;;;;22.58;54.05;101338.44;5135153;27;20051;-38
2022/07/30 02:36:36;;;;;;;0.20;0.20;;;;;;;22.58;54.11;101348.72;5132339;27;20078;-39
2022/07/30 02:39:03;;;;;;;0.10;0.10;;;;;;;22.58;54.10;101338.44;5137636;27;20050;-39
2022/07/30 02:41:30;;;;;;;0.10;0.10;;;;;;;22.58;54.04;101352.34;5137192;27;20121;-39
2022/07/30 02:43:56;;;;;;;0.10;0.10;;;;;;;22.57;53.95;101347.09;5138690;27;20090;-40
2022/07/30 02:46:23;;;;;;;0.10;0.10;;;;;;;22.58;53.86;101355.09;5117086;27;20214;-38
2022/07/30 02:48:50;;;;;;;0.10;0.10;;;;;;;22.59;54.08;101351.22;5115999;27;20461;-37
2022/07/30 02:51:17;;;;;;;0.10;0.10;;;;;;;22.58;54.08;101355.09;5102399;27;20042;-37
2022/07/30 02:53:45;;;;;;;0.10;0.10;;;;;;;22.58;54.09;101357.88;5137817;27;20122;-38
2022/07/30 02:56:11;;;;;;;0.10;0.10;;;;;;;22.58;53.92;101357.06;5134349;27;20638;-37
2022/07/30 02:58:38;;;;;;;0.10;0.10;;;;;;;22.58;54.08;101349.56;5114725;27;20081;-38
2022/07/30 03:01:04;;;;;;;0.10;0.10;;;;;;;22.59;53.82;101351.22;5136987;27;20492;-38
2022/07/30 03:03:31;;;;;;;0.10;0.10;;;;;;;22.57;54.19;101345.13;5134342;27;20088;-39
2022/07/30 03:05:57;;;;;;;0.10;0.10;;;;;;;22.58;54.12;101355.09;5119391;27;20082;-39
2022/07/30 03:08:24;;;;;;;0.10;0.10;;;;;;;22.58;54.11;101346.78;5138943;27;20059;-37
2022/07/30 03:10:50;;;;;;;0.10;0.10;;;;;;;22.58;53.98;101351.50;5136897;27;20130;-38
2022/07/30 03:13:16;;;;;;;0.10;0.10;;;;;;;22.57;54.00;101349.84;5139849;27;20083;-39
2022/07/30 03:15:47;;;;;;;0.10;0.10;;;;;;;22.58;54.03;101351.50;5117746;27;20078;-35
2022/07/30 03:18:14;;;;;;;0.10;0.10;;;;;;;22.58;54.10;101348.72;5117785;27;20043;-38
2022/07/30 03:20:41;;;;;;;0.10;0.10;;;;;;;22.57;54.10;101356.25;5139392;27;20450;-37
2022/07/30 03:23:07;;;;;;;0.10;0.10;;;;;;;22.57;54.06;101349.84;5136432;27;20469;-39
2022/07/30 03:25:33;;;;;;;0.10;0.10;;;;;;;22.57;54.02;101356.25;5142555;27;20103;-37
2022/07/30 03:28:00;;;;;;;0.10;0.10;;;;;;;22.58;54.09;101362.63;5138066;27;20075;-37
2022/07/30 03:30:27;;;;;;;0.10;0.10;;;;;;;22.58;53.98;101362.63;5119609;27;20294;-37
2022/07/30 03:32:53;;;;;;;0.10;0.10;;;;;;;22.58;54.09;101357.06;5131912;27;20453;-38
2022/07/30 03:35:20;;;;;;;0.10;0.10;;;;;;;22.58;54.10;101357.06;5133826;27;20129;-38
2022/07/30 03:37:47;;;;;;;0.10;0.10;;;;;;;22.56;54.15;101360.13;5136622;27;20078;-37
2022/07/30 03:40:13;;;;;;;0.10;0.10;;;;;;;22.57;54.05;101356.25;5134399;27;20046;-37
2022/07/30 03:42:39;;;;;;;0.10;0.10;;;;;;;22.58;53.94;101370.94;5097768;27;20070;-38
2022/07/30 03:45:06;;;;;;;0.10;0.10;;;;;;;22.57;54.01;101367.34;5138105;27;20050;-37
2022/07/30 03:47:33;;;;;;;0.10;0.10;;;;;;;22.56;54.05;101374.03;5131403;27;20077;-39
2022/07/30 03:50:00;;;;;;;0.10;0.10;;;;;;;22.58;54.04;101370.94;5137268;27;20079;-38
2022/07/30 03:52:27;;;;;;;0.10;0.10;;;;;;;22.57;54.02;101367.34;5134333;27;20573;-39
2022/07/30 03:54:53;;;;;;;0.10;0.10;;;;;;;22.58;53.92;101374.53;5142605;27;20085;-38
2022/07/30 03:57:19;;;;;;;0.10;0.10;;;;;;;22.58;53.95;101368.16;5139242;27;20083;-38
2022/07/30 03:59:46;;;;;;;0.20;0.20;;;;;;;22.58;54.01;101379.25;5110846;27;20046;-38
2022/07/30 04:02:12;;;;;;;0.10;0.10;;;;;;;22.57;54.01;101374.84;5132902;27;20505;-38
2022/07/30 04:04:42;;;;;;;0.17;0.17;;;;;;;22.58;53.95;101382.88;5138489;27;20092;-39
2022/07/30 04:07:08;;;;;;;0.20;0.20;;;;;;;22.56;54.07;101385.13;5116743;27;20146;-37
2022/07/30 04:09:33;;;;;;;0.10;0.10;;;;;;;22.56;54.02;101390.69;5118251;27;20121;-38
2022/07/30 04:11:59;;;;;;;0.10;0.10;;;;;;;22.57;54.09;101389.53;5138360;27;20312;-38
2022/07/30 04:14:25;;;;;;;0.20;0.20;;;;;;;22.56;54.05;101387.91;5138692;27;20051;-39
2022/07/30 04:16:58;;;;;;;0.10;0.10;;;;;;;22.57;54.10;101389.53;5135859;27;20051;-37
2022/07/30 04:19:27;;;;;;;0.10;0.10;;;;;;;22.57;54.13;101403.44;5133755;27;20130;-37
2022/07/30 04:21:54;;;;;;;0.10;0.10;;;;;;;22.56;54.10;101399.00;5132788;27;20104;-39
2022/07/30 04:24:21;;;;;;;0.10;0.10;;;;;;;22.56;53.93;101407.34;5135546;27;20071;-37
2022/07/30 04:26:47;;;;;;;0.10;0.10;;;;;;;22.58;54.04;101409.81;5138313;27;20063;-39
2022/07/30 04:29:12;;;;;;;0.10;0.10;;;;;;;22.57;53.94;101406.19;5138233;27;20058;-37
2022/07/30 04:31:43;;;;;;;0.10;0.10;;;;;;;22.57;54.06;101406.19;5120284;27;20065;-37
2022/07/30 04:34:12;;;;;;;0.10;0.10;;;;;;;22.57;54.10;101414.53;5138369;27;20039;-39
2022/07/30 04:36:39;;;;;;;0.10;0.10;;;;;;;22.56;54.02;101412.88;5108132;27;20489;-37
2022/07/30 04:39:04;;;;;;;0.10;0.10;;;;;;;22.57;53.92;101416.47;5118542;27;20085;-37
2022/07/30 04:41:30;;;;;;;0.10;0.10;;;;;;;22.56;54.04;101418.44;5144063;27;20039;-38
2022/07/30 04:44:13;;;;;;;0.10;0.10;;;;;;;22.55;54.07;101422.34;5139072;27;20039;-37
2022/07/30 04:46:39;;;;;;;0.10;0.10;;;;;;;22.56;54.09;101423.97;5134577;27;20370;-39
2022/07/30 04:49:05;;;;;;;0.10;0.10;;;;;;;22.57;54.17;101425.63;5135861;27;20245;-37
2022/07/30 04:51:32;;;;;;;0.10;0.10;;;;;;;22.57;54.00;101427.59;5139447;27;20043;-38
2022/07/30 04:53:59;;;;;;;0.13;0.13;;;;;;;22.57;54.04;101422.03;5137745;27;20097;-37
2022/07/30 04:56:25;;;;;;;0.10;0.10;;;;;;;22.55;54.02;101425.13;5143292;27;20093;-38
2022/07/30 04:58:51;;;;;;;0.10;0.10;;;;;;;22.56;54.03;101429.53;5143379;27;20074;-38
2022/07/30 05:01:22;;;;;;;0.10;0.10;;;;;;;22.56;54.10;101437.03;5139375;27;20525;-37
2022/07/30 05:03:50;;;;;;;0.10;0.10;;;;;;;22.57;54.12;101447.00;5116267;27;20126;-39
2022/07/30 05:06:15;;;;;;;0.10;0.10;;;;;;;22.57;53.95;101436.72;5138468;27;20085;-37
2022/07/30 05:08:41;;;;;;;0.10;0.10;;;;;;;22.57;54.03;101449.78;5138911;27;20035;-38
2022/07/30 05:11:11;;;;;;;0.10;0.10;;;;;;;22.56;53.94;101454.53;5139883;27;20469;-38
2022/07/30 05:13:36;;;;;;;0.20;0.20;;;;;;;22.56;53.99;101450.91;5119411;27;20074;-35
2022/07/30 05:16:04;;;;;;;0.10;0.10;;;;;;;22.56;54.00;101454.53;5136318;27;20047;-37
2022/07/30 05:18:30;;;;;;;0.10;0.10;;;;;;;22.56;54.11;101454.53;5141291;27;20130;-38
2022/07/30 05:20:55;;;;;;;0.20;0.20;;;;;;;22.55;54.03;101447.31;5143099;27;20043;-37
2022/07/30 05:23:21;;;;;;;0.10;0.10;;;;;;;22.56;54.02;101448.97;5144965;27;20129;-38
2022/07/30 05:25:46;;;;;;;0.10;0.10;;;;;;;22.54;54.19;101452.03;5142044;27;20047;-38
2022/07/30 05:28:12;;;;;;;0.10;0.10;;;;;;;22.55;54.11;101452.88;5141087;27;20045;-39
2022/07/30 05:30:38;;;;;;;0.10;0.10;;;;;;;22.54;54.09;101457.59;5138145;27;20099;-38
2022/07/30 05:33:07;;;;;;;0.10;0.10;;;;;;;22.56;54.14;101462.03;5133890;27;20043;-37
2022/07/30 05:35:41;;;;;;;0.10;0.10;;;;;;;22.54;54.15;101460.38;5138478;27;20499;-37
2022/07/30 05:38:06;;;;;;;0.10;0.10;;;;;;;22.55;54.13;101472.31;5136749;27;20043;-39
2022/07/30 05:40:32;;;;;;;0.20;0.20;;;;;;;22.54;54.04;101471.47;5141301;27;20035;-38
2022/07/30 05:42:58;;;;;;;0.10;0.10;;;;;;;22.56;54.07;101468.41;5135341;27;20393;-39
2022/07/30 05:45:23;;;;;;;0.10;0.10;;;;;;;22.56;54.13;101468.41;5140532;27;20080;-38
2022/07/30 05:47:49;;;;;;;0.10;0.10;;;;;;;22.57;54.05;101474.78;5137912;27;20039;-37
2022/07/30 05:50:15;;;;;;;0.10;0.10;;;;;;;22.56;54.21;101475.91;5137846;27;20499;-37
2022/07/30 05:52:40;;;;;;;0.10;0.10;;;;;;;22.56;54.13;101475.91;5134884;27;20047;-38
2022/07/30 05:55:07;;;;;;;0.10;0.10;;;;;;;22.56;54.05;101475.91;5139346;27;20134;-38
2022/07/30 05:57:35;;;;;;;0.10;0.10;;;;;;;22.56;54.14;101478.69;5136392;27;20122;-37
2022/07/30 06:00:03;;;;;;;0.10;0.10;;;;;;;22.56;54.06;101478.69;5135683;27;20477;-38
2022/07/30 06:02:29;;;;;;;0.17;0.17;;;;;;;22.55;54.08;101477.84;5138481;27;20139;-37
2022/07/30 06:04:54;;;;;;;0.10;0.10;;;;;;;22.54;54.13;101479.81;5137804;27;20042;-37
2022/07/30 06:07:20;;;;;;;0.10;0.10;;;;;;;22.56;54.12;101476.72;5136271;27;20039;-38
2022/07/30 06:09:46;;;;;;;0.10;0.10;;;;;;;22.56;54.12;101475.91;5135633;27;20130;-37
2022/07/30 06:12:11;;;;;;;0.10;0.10;;;;;;;22.56;54.05;101481.44;5140846;27;20046;-39
2022/07/30 06:14:37;;;;;;;0.10;0.10;;;;;;;22.53;54.06;101483.69;5139199;27;20050;-39
2022/07/30 06:17:03;;;;;;;0.10;0.10;;;;;;;22.55;54.07;101483.41;5139100;27;20050;-37
2022/07/30 06:19:29;;;;;;;0.10;0.10;;;;;;;22.56;54.08;101484.22;5140374;27;20123;-36
2022/07/30 06:21:54;;;;;;;0.10;0.10;;;;;;;22.56;54.06;101489.78;5135686;27;20362;-38
2022/07/30 06:24:32;;;;;;;0.10;0.10;;;;;;;22.56;54.07;101487.81;5139019;27;20047;-37
2022/07/30 06:26:58;;;;;;;0.10;0.10;;;;;;;22.54;54.00;101490.91;5121124;28;21825;-37
2022/07/30 06:29:24;;;;;;;0.10;0.10;;;;;;;22.54;54.09;101479.81;5138711;27;20044;-38
2022/07/30 06:31:50;;;;;;;0.10;0.10;;;;;;;22.54;53.94;101490.91;5140177;27;20053;-38
2022/07/30 06:34:15;;;;;;;0.10;0.10;;;;;;;22.54;54.09;101490.91;5134632;27;20069;-38
2022/07/30 06:36:41;;;;;;;0.10;0.10;;;;;;;22.55;54.04;101500.06;5143659;27;20043;-38
2022/07/30 06:39:07;;;;;;;0.10;0.10;;;;;;;22.54;54.08;101498.41;5117109;27;20390;-38
2022/07/30 06:41:32;;;;;;;0.10;0.10;;;;;;;22.54;54.05;101503.97;5117766;27;20061;-37
2022/07/30 06:43:58;;;;;;;0.10;0.10;;;;;;;22.54;53.92;101499.22;5134753;27;20039;-39
2022/07/30 06:46:24;;;;;;;0.10;0.10;;;;;;;22.54;54.06;101502.00;5132098;27;20035;-39
2022/07/30 06:48:49;;;;;;;0.10;0.10;;;;;;;22.56;54.00;101512.00;5117116;27;20043;-39
2022/07/30 06:51:15;;;;;;;0.10;0.10;;;;;;;22.54;54.05;101502.00;5134756;27;20073;-38
2022/07/30 06:53:41;;;;;;;0.10;0.10;;;;;;;22.54;54.08;101502.00;5133359;27;20480;-39
2022/07/30 06:56:08;;;;;;;0.10;0.10;;;;;;;22.54;54.11;101498.41;5137176;27;20043;-40
2022/07/30 06:58:33;;;;;;;0.10;0.10;;;;;;;22.54;54.09;101503.97;5117362;27;20046;-38
2022/07/30 07:00:59;;;;;;;0.10;0.10;;;;;;;22.54;54.07;101510.34;5140925;27;20128;-39
2022/07/30 07:03:26;;;;;;;0.10;0.10;;;;;;;22.53;53.99;101511.44;5138972;27;20039;-39
2022/07/30 07:06:05;;;;;;;0.10;0.10;;;;;;;22.54;54.03;101509.50;5140246;27;20039;-36
2022/07/30 07:08:31;;;;;;;0.10;0.10;;;;;;;22.54;54.20;101506.72;5117697;27;20050;-39
2022/07/30 07:10:57;;;;;;;0.10;0.10;;;;;;;22.54;54.04;101512.28;5135221;27;20427;-39
2022/07/30 07:13:22;;;;;;;0.10;0.10;;;;;;;22.54;54.09;101512.28;5135207;27;20050;-39
2022/07/30 07:15:48;;;;;;;0.20;0.20;;;;;;;22.53;54.13;101513.38;5132531;27;20100;-39
2022/07/30 07:18:14;;;;;;;0.10;0.10;;;;;;;22.53;54.20;101513.38;5136482;27;20090;-39
2022/07/30 07:20:40;;;;;;;0.10;0.10;;;;;;;22.55;54.13;101516.72;5138184;27;20081;-39
2022/07/30 07:23:05;;;;;;;0.10;0.10;;;;;;;22.54;54.21;101527.00;5139001;27;20045;-39
2022/07/30 07:25:37;;;;;;;0.10;0.10;;;;;;;22.54;54.05;101526.16;5138914;27;20142;-39
2022/07/30 07:28:03;;;;;;;0.15;0.15;;;;;;;22.54;54.17;101523.38;5137098;27;20039;-40
2022/07/30 07:30:39;;;;;;;0.10;0.10;;;;;;;22.53;54.17;101525.31;5132649;27;20062;-39
2022/07/30 07:33:05;;;;;;;0.10;0.10;;;;;;;22.53;54.08;101527.25;5117585;27;20133;-39
2022/07/30 07:35:32;;;;;;;0.10;0.10;;;;;;;22.54;54.03;101527.00;5134972;27;20115;-39
2022/07/30 07:38:13;;;;;;;0.10;0.10;;;;;;;22.53;54.12;101530.84;5137296;27;20095;-39
2022/07/30 07:40:39;;;;;;;0.10;0.10;;;;;;;22.54;54.12;101526.16;5119786;27;20446;-38
2022/07/30 07:43:05;;;;;;;0.10;0.10;;;;;;;22.54;54.08;101526.16;5119318;27;20043;-39
2022/07/30 07:45:30;;;;;;;0.10;0.10;;;;;;;22.53;54.38;101525.31;5139686;27;20039;-36
2022/07/30 07:47:56;;;;;;;0.10;0.10;;;;;;;22.54;54.05;101531.72;5134883;27;20396;-37
2022/07/30 07:50:22;;;;;;;0.10;0.10;;;;;;;22.54;54.13;101526.16;5133336;27;20050;-39
2022/07/30 07:52:47;;;;;;;0.10;0.10;;;;;;;22.54;54.13;101523.38;5135314;27;20043;-39
2022/07/30 07:55:13;;;;;;;0.10;0.10;;;;;;;22.54;54.16;101520.63;5133828;27;20457;-37
2022/07/30 07:57:40;;;;;;;0.10;0.10;;;;;;;22.54;54.16;101527.00;5134027;27;20039;-39
2022/07/30 08:00:07;;;;;;;0.10;0.10;;;;;;;22.53;54.18;101522.53;5117518;27;20062;-38
2022/07/30 08:02:33;;;;;;;0.10;0.10;;;;;;;22.53;54.21;101525.31;5146396;27;20082;-37
2022/07/30 08:04:59;;;;;;;0.10;0.10;;;;;;;22.54;54.15;101523.38;5119459;27;20449;-38
2022/07/30 08:07:25;;;;;;;0.10;0.10;;;;;;;22.53;54.18;101518.94;5139189;27;20503;-37
2022/07/30 08:09:50;;;;;;;0.20;0.20;;;;;;;22.53;54.11;101525.31;5138390;27;20401;-40
2022/07/30 08:12:16;;;;;;;0.10;0.10;;;;;;;22.53;54.18;101524.47;5139111;27;20051;-39
2022/07/30 08:14:42;;;;;;;0.10;0.10;;;;;;;22.52;53.99;101518.09;5140243;27;20049;-39
2022/07/30 08:17:08;;;;;;;0.10;0.10;;;;;;;22.54;54.00;101513.13;5137619;27;20043;-39
2022/07/30 08:19:34;;;;;;;0.10;0.10;;;;;;;22.54;53.99;101517.84;5137951;27;20038;-39
2022/07/30 08:22:00;;;;;;;0.10;0.10;;;;;;;22.54;54.13;101515.88;5136466;27;20051;-39
2022/07/30 08:24:25;;;;;;;0.10;0.10;;;;;;;22.53;53.84;101508.66;5142197;27;20051;-37
2022/07/30 08:26:51;;;;;;;0.10;0.10;;;;;;;22.52;54.06;101515.34;5139647;27;20049;-37
2022/07/30 08:29:17;;;;;;;0.10;0.10;;;;;;;22.53;54.03;101514.22;5136153;27;20385;-39
2022/07/30 08:31:42;;;;;;;0.10;0.10;;;;;;;22.54;54.01;101517.84;5140687;27;20047;-38
2022/07/30 08:34:08;;;;;;;0.10;0.10;;;;;;;22.52;54.15;101514.50;5139444;27;20292;-38
2022/07/30 08:36:34;;;;;;;0.10;0.10;;;;;;;22.53;54.03;101516.97;5138528;27;20053;-39
2022/07/30 08:38:59;;;;;;;0.10;0.10;;;;;;;22.54;54.05;101517.84;5138162;27;20039;-37
2022/07/30 08:41:25;;;;;;;0.10;0.10;;;;;;;22.53;54.01;101521.72;5139439;27;20095;-37
2022/07/30 08:43:52;;;;;;;0.10;0.10;;;;;;;22.53;54.13;101522.53;5140138;27;20077;-38
2022/07/30 08:46:20;;;;;;;0.10;0.10;;;;;;;22.53;54.08;101524.47;5119571;27;20125;-37
2022/07/30 08:48:46;;;;;;;0.10;0.10;;;;;;;22.53;54.05;101521.72;5139380;27;20066;-37
2022/07/30 08:51:12;;;;;;;0.10;0.10;;;;;;;22.54;54.16;101528.94;5141689;27;20047;-40
2022/07/30 08:53:38;;;;;;;0.10;0.10;;;;;;;22.52;54.14;101522.84;5135454;27;20043;-39
2022/07/30 08:56:06;;;;;;;0.10;0.10;;;;;;;22.53;54.07;101527.25;5137467;27;20054;-39
2022/07/30 08:58:34;;;;;;;0.10;0.10;;;;;;;22.52;54.16;101517.28;5144401;27;20075;-37
2022/07/30 09:01:00;;;;;;;0.10;0.10;;;;;;;22.54;53.99;101523.38;5119816;27;20083;-38
2022/07/30 09:03:26;;;;;;;0.10;0.10;;;;;;;22.53;54.07;101518.94;5137525;27;20269;-38
2022/07/30 09:05:52;;;;;;;0.10;0.10;;;;;;;22.52;54.34;101520.88;5116906;27;20078;-38
2022/07/30 09:08:17;;;;;;;0.10;0.10;;;;;;;22.53;54.07;101528.09;5140359;27;20055;-38
2022/07/30 09:10:46;;;;;;;0.10;0.10;;;;;;;22.53;53.86;101528.09;5136351;27;20047;-40
2022/07/30 09:13:23;;;;;;;0.10;0.10;;;;;;;22.54;54.07;101532.53;5140524;27;20047;-38
2022/07/30 09:15:49;;;;;;;0.10;0.10;;;;;;;22.51;53.96;101524.78;5136169;27;20482;-39
2022/07/30 09:18:25;;;;;;;0.10;0.10;;;;;;;22.53;54.04;101535.59;5138198;27;20039;-38
2022/07/30 09:20:50;;;;;;;0.10;0.10;;;;;;;22.53;54.16;101530.03;5118831;27;20133;-38
2022/07/30 09:23:16;;;;;;;0.10;0.10;;;;;;;22.52;54.09;101531.16;5139611;27;20374;-39
2022/07/30 09:25:44;;;;;;;0.10;0.10;;;;;;;22.52;53.97;101528.38;5138630;27;20385;-38
2022/07/30 09:28:11;;;;;;;0.10;0.10;;;;;;;22.53;54.10;101524.47;5139109;27;20073;-39
2022/07/30 09:30:51;;;;;;;0.10;0.10;;;;;;;22.53;54.00;101524.47;5139244;27;20039;-38
2022/07/30 09:33:34;;;;;;;0.10;0.10;;;;;;;22.52;54.17;101532.00;5142487;27;20473;-39
2022/07/30 09:36:01;;;;;;;0.10;0.10;;;;;;;22.52;54.10;101529.22;5142603;27;20047;-38
2022/07/30 09:38:27;;;;;;;0.10;0.10;;;;;;;22.53;54.16;101530.03;5135602;27;20130;-38
2022/07/30 09:40:54;;;;;;;0.10;0.10;;;;;;;22.52;54.08;101532.00;5139780;27;20449;-38
2022/07/30 09:43:23;;;;;;;0.10;0.10;;;;;;;22.52;54.09;101529.22;5120384;27;20379;-38
2022/07/30 09:45:56;;;;;;;0.10;0.10;;;;;;;22.53;54.01;101528.09;5137136;27;20096;-38
2022/07/30 09:48:24;;;;;;;0.10;0.10;;;;;;;22.52;54.04;101526.44;5120810;27;20084;-38
2022/07/30 09:50:51;;;;;;;0.10;0.10;;;;;;;22.51;54.09;101527.56;5141524;27;20122;-38
2022/07/30 09:53:17;;;;;;;0.10;0.10;;;;;;;22.52;54.14;101531.16;5117375;27;20493;-39
2022/07/30 09:55:43;;;;;;;0.20;0.20;;;;;;;22.52;54.11;101539.50;5117962;27;20119;-37
2022/07/30 09:58:10;;;;;;;0.10;0.10;;;;;;;22.53;54.07;101543.91;5139251;27;20112;-38
2022/07/30 10:00:57;;;;;;;0.10;0.10;;;;;;;22.53;54.07;101541.13;5094620;27;20047;-39
2022/07/30 10:03:24;;;;;;;0.10;0.10;;;;;;;22.52;53.96;101531.16;5121468;27;20039;-38
2022/07/30 10:06:08;;;;;;;0.10;0.10;;;;;;;22.51;54.21;101524.78;5135431;27;20558;-39
2022/07/30 10:08:48;;;;;;;0.10;0.10;;;;;;;22.52;54.06;101528.38;5136369;27;20488;-37
2022/07/30 10:11:18;;;;;;;0.10;0.10;;;;;;;22.53;54.15;101522.53;5135917;27;20073;-38
2022/07/30 10:13:53;;;;;;;0.10;0.10;;;;;;;22.53;54.14;101518.94;5138835;27;20047;-38
2022/07/30 10:16:19;;;;;;;0.10;0.10;;;;;;;22.52;54.14;101529.22;5116424;27;20135;-38
2022/07/30 10:18:45;;;;;;;0.10;0.10;;;;;;;22.52;54.05;101520.88;5137618;27;20049;-39
2022/07/30 10:21:11;;;;;;;0.10;0.10;;;;;;;22.53;54.12;101527.25;5125591;27;20054;-39
2022/07/30 10:23:42;;;;;;;0.10;0.10;;;;;;;22.52;54.09;101520.88;5135256;27;20047;-39
2022/07/30 10:26:10;;;;;;;0.10;0.10;;;;;;;22.53;54.07;101519.75;5137233;27;20100;-39
2022/07/30 10:28:36;;;;;;;0.10;0.10;;;;;;;22.52;54.09;101523.66;5141163;27;20430;-38
2022/07/30 10:31:05;;;;;;;0.10;0.10;;;;;;;22.53;54.00;101532.81;5139282;27;20043;-39
2022/07/30 10:33:50;;;;;;;0.10;0.10;;;;;;;22.53;54.14;101535.59;5107228;27;20047;-38
2022/07/30 10:36:16;;;;;;;0.10;0.10;;;;;;;22.52;54.15;101523.66;5119817;27;20442;-39
2022/07/30 10:38:44;;;;;;;0.10;0.10;;;;;;;22.53;54.09;101530.03;5136701;27;20035;-39
2022/07/30 10:41:34;;;;;;;0.10;0.10;;;;;;;22.52;54.12;101537.53;5138496;27;20035;-37
2022/07/30 10:47:17;;;;;;;0.10;0.10;;;;;;;22.52;54.05;101534.75;5177886;27;20115;-35
2022/07/30 10:52:43;;;;;;;0.10;0.10;;;;;;;;;;5185692;27;20144;-39
2022/07/30 10:55:13;;;;;;;0.20;0.20;;;;;;;22.52;54.01;101520.06;5168838;27;20129;-37
2022/07/30 10:57:57;;;;;;;0.10;0.10;;;;;;;;;;5151007;27;20053;-39
2022/07/30 11:00:24;;;;;;;0.10;0.10;;;;;;;;;;5166684;27;20038;-39
2022/07/30 11:03:10;;;;;;;0.10;0.10;;;;;;;22.52;54.09;101509.78;5167782;27;20098;-40
2022/07/30 11:05:42;;;;;;;0.10;0.10;;;;;;;22.51;54.14;101516.47;5151520;27;20035;-39
2022/07/30 11:08:38;;;;;;;0.10;0.10;;;;;;;22.51;54.10;101508.13;5167042;27;20062;-39
2022/07/30 11:14:02;;;;;;;0.10;0.10;;;;;;;22.51;54.14;101510.91;5178263;27;20144;-39
2022/07/30 11:19:16;;;;;;;0.10;0.10;;;;;;;22.52;54.14;101503.41;5158111;27;20145;-39
2022/07/30 11:22:26;;;;;;;0.10;0.10;;;;;;;22.51;54.21;101508.13;5112683;27;20477;-39
2022/07/30 11:24:52;;;;;;;0.10;0.10;;;;;;;22.52;54.13;101507.00;5132315;27;20082;-38
2022/07/30 11:27:39;;;;;;;0.10;0.10;;;;;;;22.51;54.17;101508.13;5137126;27;20103;-39
2022/07/30 11:35:41;;;;;;;0.10;0.10;;;;;;;22.52;54.17;101508.97;5175105;27;20525;-38
2022/07/30 11:38:14;;;;;;;0.10;0.10;;;;;;;22.52;54.11;101497.84;5134494;27;20049;-37
2022/07/30 11:43:24;;;;;;;0.10;0.10;;;;;;;22.51;54.11;101510.09;5149833;27;20202;-38
2022/07/30 11:46:08;;;;;;;0.10;0.10;;;;;;;22.52;54.14;101498.69;5126127;27;20409;-38
2022/07/30 11:48:40;;;;;;;0.17;0.17;;;;;;;22.52;54.13;101506.19;5127718;27;20485;-38
2022/07/30 11:51:07;;;;;;;0.10;0.10;;;;;;;;;;5112388;27;20051;-38